createdAt,value
2023-03-06T10:37:14.572Z,7.70
2023-03-06T10:38:14.545Z,7.70
2023-03-06T10:39:14.550Z,7.60
2023-03-06T10:40:14.556Z,7.61
2023-03-06T10:41:14.554Z,7.50
2023-03-06T10:42:14.566Z,7.56
2023-03-06T10:43:14.578Z,7.43
2023-03-06T10:44:14.562Z,7.42
2023-03-06T10:45:14.578Z,7.42
2023-03-06T10:46:14.654Z,7.31
2023-03-06T10:47:14.578Z,7.36
2023-03-06T10:48:14.579Z,7.28
2023-03-06T10:49:14.593Z,7.33
2023-03-06T10:50:14.588Z,7.42
2023-03-06T10:51:18.463Z,7.39
2023-03-06T10:52:14.597Z,7.40
2023-03-06T10:53:14.684Z,7.35
2023-03-06T10:54:14.610Z,7.40
2023-03-06T10:55:14.606Z,7.48
2023-03-06T10:56:14.611Z,7.47
2023-03-06T10:57:14.616Z,7.50
2023-03-06T10:58:14.640Z,7.56
2023-03-06T10:59:14.650Z,7.60
2023-03-06T11:00:14.630Z,7.61
2023-03-06T11:01:14.677Z,7.72
2023-03-06T11:02:14.641Z,7.72
2023-03-06T11:03:14.642Z,7.61
2023-03-06T11:04:14.662Z,7.63
2023-03-06T11:05:14.650Z,7.57
2023-03-06T11:06:14.657Z,7.56
2023-03-06T11:07:14.688Z,7.56
2023-03-06T11:08:14.664Z,7.47
2023-03-06T11:09:14.696Z,7.38
2023-03-06T11:10:14.672Z,7.42
2023-03-06T11:11:16.929Z,7.40
2023-03-06T11:12:14.683Z,7.40
2023-03-06T11:13:14.688Z,7.42
2023-03-06T11:14:14.696Z,7.40
2023-03-06T11:15:14.721Z,7.45
2023-03-06T11:16:14.792Z,7.43
2023-03-06T11:17:14.704Z,7.31
2023-03-06T11:18:14.707Z,7.33
2023-03-06T11:19:14.714Z,7.31
2023-03-06T11:20:14.757Z,7.35
2023-03-06T11:21:14.722Z,7.24
2023-03-06T11:22:14.730Z,7.24
2023-03-06T11:23:14.737Z,7.20
2023-03-06T11:24:14.750Z,7.21
2023-03-06T11:25:14.804Z,7.11
2023-03-06T11:26:14.743Z,7.07
2023-03-06T11:27:14.749Z,6.97
2023-03-06T11:28:14.749Z,6.88
2023-03-06T11:29:14.875Z,6.79
2023-03-06T11:30:14.756Z,6.79
2023-03-06T11:31:14.777Z,6.67
2023-03-06T11:32:14.795Z,6.64
2023-03-06T11:33:14.767Z,6.60
2023-03-06T11:34:14.774Z,6.57
2023-03-06T11:35:14.779Z,6.62
2023-03-06T11:36:14.781Z,6.64
2023-03-06T11:37:14.784Z,6.59
2023-03-06T11:38:14.789Z,6.51
2023-03-06T11:39:15.614Z,6.51
2023-03-06T11:40:14.795Z,6.36
2023-03-06T11:41:14.902Z,6.38
2023-03-06T11:42:14.801Z,6.42
2023-03-06T11:43:14.808Z,6.44
2023-03-06T11:44:14.807Z,6.30
2023-03-06T11:45:14.812Z,6.31
2023-03-06T11:46:14.849Z,6.42
2023-03-06T11:47:14.833Z,6.30
2023-03-06T11:48:14.841Z,6.26
2023-03-06T11:49:14.833Z,6.26
2023-03-06T11:50:14.830Z,6.27
2023-03-06T11:51:14.836Z,6.19
2023-03-06T11:52:14.835Z,6.24
2023-03-06T11:53:14.841Z,6.20
2023-03-06T11:54:14.843Z,6.27
2023-03-06T11:55:14.850Z,6.26
2023-03-06T11:56:14.851Z,6.24
2023-03-06T11:57:14.934Z,6.22
2023-03-06T11:58:14.866Z,6.17
2023-03-06T11:59:14.879Z,6.17
2023-03-06T12:00:14.886Z,6.12
2023-03-06T12:01:14.870Z,6.17
2023-03-06T12:02:14.932Z,6.07
2023-03-06T12:03:14.880Z,6.01
2023-03-06T12:04:14.890Z,5.94
2023-03-06T12:05:14.905Z,5.93
2023-03-06T12:06:14.891Z,5.84
2023-03-06T12:07:14.893Z,5.75
2023-03-06T12:08:14.899Z,5.73
2023-03-06T12:09:14.913Z,5.69
2023-03-06T12:10:14.926Z,5.68
2023-03-06T12:11:14.909Z,5.69
2023-03-06T12:12:14.940Z,5.71
2023-03-06T12:13:14.934Z,5.69
2023-03-06T12:14:14.918Z,5.65
2023-03-06T12:15:14.926Z,5.61
2023-03-06T12:16:14.976Z,5.64
2023-03-06T12:17:14.935Z,5.64
2023-03-06T12:18:14.930Z,5.66
2023-03-06T12:19:14.940Z,5.61
2023-03-06T12:20:15.009Z,5.72
2023-03-06T12:21:14.950Z,5.64
2023-03-06T12:22:14.941Z,5.66
2023-03-06T12:23:16.025Z,5.72
2023-03-06T12:24:14.960Z,5.82
2023-03-06T12:25:14.962Z,5.86
2023-03-06T12:26:14.957Z,5.87
2023-03-06T12:27:14.965Z,5.87
2023-03-06T12:28:14.964Z,5.75
2023-03-06T12:29:14.990Z,5.90
2023-03-06T12:30:15.022Z,5.90
2023-03-06T12:31:14.979Z,5.86
2023-03-06T12:32:15.168Z,5.94
2023-03-06T12:33:14.999Z,5.94
2023-03-06T12:34:14.992Z,5.97
2023-03-06T12:35:14.998Z,5.93
2023-03-06T12:36:15.001Z,5.93
2023-03-06T12:37:15.007Z,5.93
2023-03-06T12:38:15.017Z,5.89
2023-03-06T12:39:15.010Z,5.90
2023-03-06T12:40:15.047Z,5.91
2023-03-06T12:41:15.016Z,5.86
2023-03-06T12:42:23.246Z,5.93
2023-03-06T12:43:15.024Z,5.84
2023-03-06T12:44:15.037Z,5.86
2023-03-06T12:45:15.056Z,5.84
2023-03-06T12:46:15.089Z,5.80
2023-03-06T12:47:15.040Z,5.76
2023-03-06T12:48:15.042Z,5.71
2023-03-06T12:49:23.032Z,5.66
2023-03-06T12:50:15.043Z,5.68
2023-03-06T12:51:15.046Z,5.68
2023-03-06T12:52:18.522Z,5.75
2023-03-06T12:53:15.072Z,5.69
2023-03-06T12:54:15.056Z,5.73
2023-03-06T12:55:15.061Z,5.71
2023-03-06T12:56:15.068Z,5.73
2023-03-06T12:57:15.066Z,5.82
2023-03-06T12:58:15.072Z,5.76
2023-03-06T12:59:15.083Z,5.82
2023-03-06T13:00:15.097Z,5.79
2023-03-06T13:01:15.186Z,5.80
2023-03-06T13:02:15.136Z,5.71
2023-03-06T13:03:15.145Z,5.71
2023-03-06T13:04:15.117Z,5.62
2023-03-06T13:05:15.098Z,5.59
2023-03-06T13:06:15.126Z,5.68
2023-03-06T13:07:15.105Z,5.53
2023-03-06T13:08:15.109Z,5.51
2023-03-06T13:09:15.115Z,5.48
2023-03-06T13:10:15.129Z,5.56
2023-03-06T13:11:15.117Z,5.46
2023-03-06T13:12:15.123Z,5.51
2023-03-06T13:13:15.122Z,5.65
2023-03-06T13:14:15.136Z,5.51
2023-03-06T13:15:15.137Z,5.57
2023-03-06T13:16:15.227Z,5.62
2023-03-06T13:17:15.185Z,5.56
2023-03-06T13:18:15.147Z,5.44
2023-03-06T13:19:15.148Z,5.56
2023-03-06T13:20:15.148Z,5.54
2023-03-06T13:21:15.147Z,5.57
2023-03-06T13:22:15.155Z,5.44
2023-03-06T13:23:15.154Z,5.41
2023-03-06T13:24:15.157Z,5.35
2023-03-06T13:25:15.166Z,5.33
2023-03-06T13:26:15.164Z,5.39
2023-03-06T13:27:15.165Z,5.35
2023-03-06T13:28:15.168Z,5.26
2023-03-06T13:29:15.185Z,5.26
2023-03-06T13:30:15.181Z,5.20
2023-03-06T13:31:26.482Z,5.23
2023-03-06T13:32:15.262Z,5.17
2023-03-06T13:33:15.224Z,5.15
2023-03-06T13:34:15.194Z,5.04
2023-03-06T13:35:15.189Z,5.10
2023-03-06T13:36:15.200Z,5.15
2023-03-06T13:37:15.194Z,5.21
2023-03-06T13:38:15.199Z,5.25
2023-03-06T13:39:15.206Z,5.18
2023-03-06T13:40:15.204Z,5.25
2023-03-06T13:41:15.215Z,5.25
2023-03-06T13:42:15.210Z,5.26
2023-03-06T13:43:15.216Z,5.20
2023-03-06T13:44:15.222Z,5.25
2023-03-06T13:45:15.232Z,5.23
2023-03-06T13:46:15.289Z,5.29
2023-03-06T13:47:15.233Z,5.33
2023-03-06T13:48:37.450Z,5.39
2023-03-06T13:49:15.309Z,5.39
2023-03-06T13:50:15.244Z,5.43
2023-03-06T13:51:15.248Z,5.50
2023-03-06T13:52:15.251Z,5.54
2023-03-06T13:53:15.246Z,5.53
2023-03-06T13:54:15.374Z,5.57
2023-03-06T13:55:15.259Z,5.66
2023-03-06T13:56:15.265Z,5.64
2023-03-06T13:57:15.257Z,5.68
2023-03-06T13:58:15.266Z,5.72
2023-03-06T13:59:15.272Z,5.87
2023-03-06T14:00:15.330Z,5.91
2023-03-06T14:01:15.309Z,5.97
2023-03-06T14:02:15.284Z,6.05
2023-03-06T14:03:15.288Z,6.16
2023-03-06T14:04:15.285Z,6.16
2023-03-06T14:05:15.313Z,6.24
2023-03-06T14:06:15.303Z,6.26
2023-03-06T14:07:15.302Z,6.36
2023-03-06T14:08:15.320Z,6.44
2023-03-06T14:09:15.310Z,6.52
2023-03-06T14:10:15.334Z,6.60
2023-03-06T14:11:15.313Z,6.72
2023-03-06T14:12:15.327Z,6.74
2023-03-06T14:13:15.327Z,6.84
2023-03-06T14:14:15.330Z,6.78
2023-03-06T14:15:15.336Z,6.85
2023-03-06T14:16:15.380Z,6.89
2023-03-06T14:17:15.345Z,6.93
2023-03-06T14:18:15.354Z,6.93
2023-03-06T14:19:15.363Z,6.88
2023-03-06T14:20:15.363Z,7.00
2023-03-06T14:21:15.401Z,6.92
2023-03-06T14:22:15.368Z,7.00
2023-03-06T14:23:15.373Z,6.96
2023-03-06T14:24:15.383Z,6.97
2023-03-06T14:25:15.383Z,6.93
2023-03-06T14:26:15.427Z,6.99
2023-03-06T14:27:15.424Z,6.88
2023-03-06T14:28:15.433Z,6.95
2023-03-06T14:29:15.448Z,6.93
2023-03-06T14:30:15.453Z,6.93
2023-03-06T14:31:15.428Z,6.93
2023-03-06T14:32:15.475Z,6.96
2023-03-06T14:33:15.468Z,6.84
2023-03-06T14:34:15.482Z,6.82
2023-03-06T14:35:15.465Z,6.84
2023-03-06T14:36:15.463Z,6.79
2023-03-06T14:37:15.476Z,6.77
2023-03-06T14:38:15.442Z,6.77
2023-03-06T14:39:15.455Z,6.72
2023-03-06T14:40:15.478Z,6.69
2023-03-06T14:41:15.457Z,6.59
2023-03-06T14:42:15.490Z,6.62
2023-03-06T14:43:15.474Z,6.60
2023-03-06T14:44:15.475Z,6.62
2023-03-06T14:45:15.501Z,6.63
2023-03-06T14:46:15.506Z,6.69
2023-03-06T14:47:15.487Z,6.75
2023-03-06T14:48:15.491Z,6.60
2023-03-06T14:49:15.506Z,6.64
2023-03-06T14:50:15.521Z,6.66
2023-03-06T14:51:15.508Z,6.69
2023-03-06T14:52:15.507Z,6.70
2023-03-06T14:53:15.529Z,6.67
2023-03-06T14:54:15.521Z,6.79
2023-03-06T14:55:15.518Z,6.74
2023-03-06T14:56:15.531Z,6.79
2023-03-06T14:57:15.531Z,6.82
2023-03-06T14:58:15.540Z,6.85
2023-03-06T14:59:15.544Z,6.78
2023-03-06T15:00:15.607Z,6.87
2023-03-06T15:01:15.554Z,6.89
2023-03-06T15:02:15.592Z,6.85
2023-03-06T15:03:15.560Z,6.79
2023-03-06T15:04:15.623Z,6.74
2023-03-06T15:05:15.578Z,6.60
2023-03-06T15:06:15.573Z,6.60
2023-03-06T15:07:15.664Z,6.63
2023-03-06T15:08:15.607Z,6.56
2023-03-06T15:09:15.605Z,6.52
2023-03-06T15:10:15.580Z,6.46
2023-03-06T15:11:15.626Z,6.42
2023-03-06T15:12:15.629Z,6.36
2023-03-06T15:13:15.606Z,6.27
2023-03-06T15:14:15.598Z,6.28
2023-03-06T15:15:15.631Z,6.28
2023-03-06T15:16:15.650Z,6.36
2023-03-06T15:17:15.624Z,6.26
2023-03-06T15:18:15.626Z,6.26
2023-03-06T15:19:15.615Z,6.20
2023-03-06T15:20:15.619Z,6.27
2023-03-06T15:21:15.637Z,6.19
2023-03-06T15:22:15.657Z,6.16
2023-03-06T15:23:15.660Z,6.26
2023-03-06T15:24:15.633Z,6.16
2023-03-06T15:25:15.762Z,6.26
2023-03-06T15:26:15.643Z,6.24
2023-03-06T15:27:15.669Z,6.28
2023-03-06T15:28:15.647Z,6.27
2023-03-06T15:29:15.665Z,6.35
2023-03-06T15:30:15.699Z,6.27
2023-03-06T15:31:15.684Z,6.24
2023-03-06T15:32:15.705Z,6.16
2023-03-06T15:33:15.676Z,6.17
2023-03-06T15:34:15.701Z,6.19
2023-03-06T15:35:15.699Z,6.11
2023-03-06T15:36:15.696Z,6.16
2023-03-06T15:37:15.696Z,6.05
2023-03-06T15:39:13.259Z,6.09
2023-03-06T15:40:13.262Z,6.17
2023-03-06T15:41:13.318Z,6.05
2023-03-06T15:42:13.277Z,6.16
2023-03-06T15:43:13.278Z,6.19
2023-03-06T15:44:13.286Z,6.14
2023-03-06T15:45:13.285Z,6.14
2023-03-06T15:46:13.279Z,6.16
2023-03-06T15:47:13.289Z,6.20
2023-03-06T15:48:13.294Z,6.19
2023-03-06T15:49:13.288Z,6.20
2023-03-06T15:50:13.300Z,6.27
2023-03-06T15:51:13.343Z,6.24
2023-03-06T15:52:13.310Z,6.11
2023-03-06T15:53:13.304Z,6.09
2023-03-06T15:54:13.307Z,6.16
2023-03-06T15:55:13.318Z,6.20
2023-03-06T15:56:13.324Z,6.12
2023-03-06T15:57:13.361Z,6.02
2023-03-06T15:58:13.325Z,6.11
2023-03-06T15:59:13.332Z,6.14
2023-03-06T16:00:26.692Z,6.14
2023-03-06T16:01:13.380Z,6.02
2023-03-06T16:02:13.346Z,6.12
2023-03-06T16:03:13.343Z,6.02
2023-03-06T16:04:13.413Z,6.09
2023-03-06T16:05:13.356Z,6.08
2023-03-06T16:06:13.354Z,6.12
2023-03-06T16:07:13.382Z,6.12
2023-03-06T16:08:13.359Z,6.08
2023-03-06T16:09:13.367Z,6.11
2023-03-06T16:10:13.375Z,6.19
2023-03-06T16:11:13.373Z,6.16
2023-03-06T16:12:13.373Z,6.01
2023-03-06T16:13:13.403Z,6.05
2023-03-06T16:14:13.391Z,5.99
2023-03-06T16:15:13.392Z,5.98
2023-03-06T16:16:13.415Z,5.94
2023-03-06T16:17:13.388Z,5.94
2023-03-06T16:18:13.417Z,5.89
2023-03-06T16:19:23.842Z,5.89
2023-03-06T16:20:13.404Z,5.75
2023-03-06T16:21:13.400Z,5.76
2023-03-06T16:22:13.406Z,5.83
2023-03-06T16:23:13.406Z,5.75
2023-03-06T16:24:13.416Z,5.80
2023-03-06T16:25:13.418Z,5.66
2023-03-06T16:26:13.421Z,5.69
2023-03-06T16:27:13.426Z,5.71
2023-03-06T16:28:13.432Z,5.71
2023-03-06T16:29:13.459Z,5.66
2023-03-06T16:30:13.424Z,5.64
2023-03-06T16:31:13.508Z,5.64
2023-03-06T16:32:13.510Z,5.66
2023-03-06T16:33:13.434Z,5.57
2023-03-06T16:34:13.462Z,5.66
2023-03-06T16:35:13.440Z,5.62
2023-03-06T16:36:13.440Z,5.59
2023-03-06T16:37:13.456Z,5.59
2023-03-06T16:38:13.451Z,5.61
2023-03-06T16:39:13.482Z,5.61
2023-03-06T16:40:13.454Z,5.54
2023-03-06T16:41:13.457Z,5.54
2023-03-06T16:42:13.451Z,5.57
2023-03-06T16:43:13.624Z,5.46
2023-03-06T16:44:13.463Z,5.46
2023-03-06T16:45:13.495Z,5.54
2023-03-06T16:46:13.542Z,5.56
2023-03-06T16:47:13.472Z,5.51
2023-03-06T16:48:13.465Z,5.50
2023-03-06T16:49:13.467Z,5.51
2023-03-06T16:50:13.471Z,5.47
2023-03-06T16:51:13.475Z,5.41
2023-03-06T16:52:13.492Z,5.32
2023-03-06T16:53:13.487Z,5.30
2023-03-06T16:54:13.495Z,5.32
2023-03-06T16:55:13.482Z,5.35
2023-03-06T16:56:13.499Z,5.32
2023-03-06T16:57:13.494Z,5.32
2023-03-06T16:58:13.489Z,5.33
2023-03-06T16:59:13.539Z,5.29
2023-03-06T17:00:13.514Z,5.23
2023-03-06T17:01:13.567Z,5.18
2023-03-06T17:02:13.577Z,5.28
2023-03-06T17:03:13.497Z,5.26
2023-03-06T17:04:13.504Z,5.18
2023-03-06T17:05:13.505Z,5.17
2023-03-06T17:06:13.516Z,5.25
2023-03-06T17:07:13.505Z,5.23
2023-03-06T17:08:13.516Z,5.15
2023-03-06T17:09:13.508Z,5.18
2023-03-06T17:10:13.522Z,5.17
2023-03-06T17:11:13.521Z,5.15
2023-03-06T17:12:13.516Z,5.20
2023-03-06T17:13:13.518Z,5.08
2023-03-06T17:14:13.531Z,5.10
2023-03-06T17:15:13.529Z,5.04
2023-03-06T17:16:13.597Z,5.02
2023-03-06T17:17:13.559Z,4.99
2023-03-06T17:18:13.525Z,4.87
2023-03-06T17:19:13.528Z,4.89
2023-03-06T17:20:13.529Z,4.78
2023-03-06T17:21:13.537Z,4.82
2023-03-06T17:22:13.539Z,4.84
2023-03-06T17:23:13.541Z,4.74
2023-03-06T17:24:13.536Z,4.75
2023-03-06T17:25:13.537Z,4.78
2023-03-06T17:26:13.549Z,4.67
2023-03-06T17:27:13.541Z,4.75
2023-03-06T17:28:13.550Z,4.62
2023-03-06T17:29:13.545Z,4.70
2023-03-06T17:30:13.562Z,4.60
2023-03-06T17:31:13.597Z,4.66
2023-03-06T17:32:13.620Z,4.59
2023-03-06T17:33:13.580Z,4.63
2023-03-06T17:34:13.558Z,4.60
2023-03-06T17:35:13.559Z,4.62
2023-03-06T17:36:13.563Z,4.60
2023-03-06T17:37:13.589Z,4.53
2023-03-06T17:38:13.554Z,4.52
2023-03-06T17:39:13.565Z,4.52
2023-03-06T17:40:13.558Z,4.60
2023-03-06T17:41:13.561Z,4.68
2023-03-06T17:42:13.572Z,4.66
2023-03-06T17:43:13.562Z,4.66
2023-03-06T17:44:13.564Z,4.59
2023-03-06T17:45:13.566Z,4.66
2023-03-06T17:46:13.672Z,4.55
2023-03-06T17:47:13.568Z,4.55
2023-03-06T17:48:13.570Z,4.55
2023-03-06T17:49:13.615Z,4.59
2023-03-06T17:50:13.571Z,4.63
2023-03-06T17:51:13.575Z,4.62
2023-03-06T17:52:13.585Z,4.62
2023-03-06T17:53:13.584Z,4.58
2023-03-06T17:54:13.577Z,4.50
2023-03-06T17:55:13.590Z,4.53
2023-03-06T17:56:13.585Z,4.42
2023-03-06T17:57:13.583Z,4.45
2023-03-06T17:58:13.594Z,4.42
2023-03-06T17:59:13.584Z,4.35
2023-03-06T18:00:13.592Z,4.37
2023-03-06T18:01:13.603Z,4.35
2023-03-06T18:02:13.590Z,4.31
2023-03-06T18:03:13.589Z,4.30
2023-03-06T18:04:13.618Z,4.38
2023-03-06T18:05:13.717Z,4.23
2023-03-06T18:06:13.590Z,4.17
2023-03-06T18:07:13.598Z,4.16
2023-03-06T18:08:13.595Z,4.10
2023-03-06T18:09:13.600Z,4.06
2023-03-06T18:10:13.608Z,4.13
2023-03-06T18:11:13.607Z,4.08
2023-03-06T18:12:13.599Z,4.05
2023-03-06T18:13:13.606Z,4.17
2023-03-06T18:14:13.612Z,4.20
2023-03-06T18:15:13.607Z,4.06
2023-03-06T18:16:13.685Z,4.10
2023-03-06T18:17:13.609Z,4.12
2023-03-06T18:18:13.607Z,4.02
2023-03-06T18:19:13.606Z,4.10
2023-03-06T18:20:13.614Z,4.10
2023-03-06T18:21:13.636Z,4.13
2023-03-06T18:22:13.616Z,4.05
2023-03-06T18:23:13.626Z,4.04
2023-03-06T18:24:13.612Z,3.98
2023-03-06T18:25:13.624Z,3.99
2023-03-06T18:26:13.618Z,3.95
2023-03-06T18:27:13.613Z,3.96
2023-03-06T18:28:13.615Z,3.98
2023-03-06T18:29:13.622Z,3.94
2023-03-06T18:30:13.618Z,3.94
2023-03-06T18:31:13.676Z,3.92
2023-03-06T18:32:13.627Z,3.91
2023-03-06T18:33:13.625Z,3.92
2023-03-06T18:34:13.630Z,4.01
2023-03-06T18:35:14.637Z,3.99
2023-03-06T18:36:13.632Z,3.92
2023-03-06T18:37:13.670Z,3.91
2023-03-06T18:38:13.640Z,3.96
2023-03-06T18:39:13.631Z,4.01
2023-03-06T18:40:13.630Z,4.01
2023-03-06T18:41:13.636Z,3.99
2023-03-06T18:42:13.641Z,3.95
2023-03-06T18:43:13.635Z,3.86
2023-03-06T18:44:13.634Z,3.88
2023-03-06T18:45:13.636Z,3.88
2023-03-06T18:46:13.642Z,3.83
2023-03-06T18:47:13.636Z,3.74
2023-03-06T18:48:13.649Z,3.81
2023-03-06T18:49:13.651Z,3.76
2023-03-06T18:50:13.649Z,3.68
2023-03-06T18:51:13.651Z,3.68
2023-03-06T18:52:13.641Z,3.63
2023-03-06T18:53:13.666Z,3.69
2023-03-06T18:54:13.651Z,3.63
2023-03-06T18:55:13.662Z,3.58
2023-03-06T18:56:13.655Z,3.62
2023-03-06T18:57:13.653Z,3.59
2023-03-06T18:58:13.651Z,3.47
2023-03-06T18:59:13.646Z,3.41
2023-03-06T19:00:13.655Z,3.44
2023-03-06T19:01:13.695Z,3.47
2023-03-06T19:02:13.648Z,3.56
2023-03-06T19:03:13.660Z,3.58
2023-03-06T19:04:13.716Z,3.62
2023-03-06T19:05:13.662Z,3.65
2023-03-06T19:06:13.656Z,3.70
2023-03-06T19:07:13.667Z,3.69
2023-03-06T19:08:13.659Z,3.81
2023-03-06T19:09:13.795Z,3.81
2023-03-06T19:10:13.668Z,3.76
2023-03-06T19:11:13.662Z,3.80
2023-03-06T19:12:13.664Z,3.73
2023-03-06T19:13:13.664Z,3.73
2023-03-06T19:14:13.725Z,3.63
2023-03-06T19:15:13.672Z,3.63
2023-03-06T19:16:13.705Z,3.59
2023-03-06T19:17:13.666Z,3.66
2023-03-06T19:18:13.669Z,3.48
2023-03-06T19:19:13.685Z,3.48
2023-03-06T19:20:13.679Z,3.51
2023-03-06T19:21:13.683Z,3.40
2023-03-06T19:22:13.680Z,3.40
2023-03-06T19:23:13.673Z,3.25
2023-03-06T19:24:13.678Z,3.21
2023-03-06T19:25:13.694Z,3.26
2023-03-06T19:26:13.676Z,3.23
2023-03-06T19:27:13.678Z,3.23
2023-03-06T19:28:13.687Z,3.05
2023-03-06T19:29:13.684Z,3.18
2023-03-06T19:30:13.682Z,3.21
2023-03-06T19:31:13.683Z,3.23
2023-03-06T19:32:13.972Z,3.21
2023-03-06T19:33:13.687Z,3.19
2023-03-06T19:34:13.689Z,3.23
2023-03-06T19:35:13.680Z,3.26
2023-03-06T19:36:13.684Z,3.16
2023-03-06T19:37:13.690Z,3.25
2023-03-06T19:38:13.696Z,3.25
2023-03-06T19:39:13.694Z,3.25
2023-03-06T19:40:13.687Z,3.26
2023-03-06T19:41:13.935Z,3.21
2023-03-06T19:42:14.025Z,3.25
2023-03-06T19:43:13.688Z,3.14
2023-03-06T19:44:13.698Z,3.28
2023-03-06T19:45:13.697Z,3.23
2023-03-06T19:46:13.841Z,3.23
2023-03-06T19:47:13.692Z,3.22
2023-03-06T19:48:13.704Z,3.16
2023-03-06T19:49:13.692Z,3.14
2023-03-06T19:50:13.695Z,3.26
2023-03-06T19:51:13.694Z,3.23
2023-03-06T19:52:13.897Z,3.16
2023-03-06T19:53:13.700Z,3.05
2023-03-06T19:54:14.946Z,3.07
2023-03-06T19:55:13.705Z,3.01
2023-03-06T19:56:13.700Z,2.97
2023-03-06T19:57:13.735Z,2.95
2023-03-06T19:58:13.707Z,2.90
2023-03-06T19:59:13.709Z,2.90
2023-03-06T20:00:13.709Z,2.87
2023-03-06T20:01:13.805Z,2.77
2023-03-06T20:02:13.701Z,2.80
2023-03-06T20:03:13.722Z,2.75
2023-03-06T20:04:13.731Z,2.87
2023-03-06T20:05:13.703Z,2.85
2023-03-06T20:06:13.713Z,2.87
2023-03-06T20:07:13.737Z,2.87
2023-03-06T20:08:13.712Z,2.93
2023-03-06T20:09:13.713Z,2.95
2023-03-06T20:10:13.715Z,2.98
2023-03-06T20:11:13.711Z,2.97
2023-03-06T20:12:13.705Z,3.00
2023-03-06T20:13:13.734Z,2.87
2023-03-06T20:14:13.707Z,2.92
2023-03-06T20:15:13.709Z,2.87
2023-03-06T20:16:13.804Z,2.87
2023-03-06T20:17:13.702Z,2.86
2023-03-06T20:18:13.718Z,2.97
2023-03-06T20:19:13.707Z,2.93
2023-03-06T20:20:13.702Z,2.98
2023-03-06T20:21:13.726Z,3.04
2023-03-06T20:22:13.717Z,2.98
2023-03-06T20:23:16.242Z,3.10
2023-03-06T20:24:13.709Z,3.08
2023-03-06T20:25:13.706Z,3.04
2023-03-06T20:26:13.712Z,3.11
2023-03-06T20:27:13.702Z,3.00
2023-03-06T20:28:13.701Z,3.00
2023-03-06T20:29:13.733Z,3.00
2023-03-06T20:30:13.701Z,2.97
2023-03-06T20:31:13.736Z,2.93
2023-03-06T20:32:13.771Z,2.87
2023-03-06T20:34:13.703Z,2.90
2023-03-06T20:35:13.709Z,2.83
2023-03-06T20:36:13.714Z,2.87
2023-03-06T20:37:13.706Z,2.83
2023-03-06T20:38:13.706Z,2.89
2023-03-06T20:39:13.713Z,2.74
2023-03-06T20:40:13.742Z,2.69
2023-03-06T20:41:14.923Z,2.60
2023-03-06T20:42:13.718Z,2.57
2023-03-06T20:43:13.711Z,2.61
2023-03-06T20:44:13.713Z,2.61
2023-03-06T20:45:13.730Z,2.61
2023-03-06T20:46:13.747Z,2.61
2023-03-06T20:47:13.708Z,2.57
2023-03-06T20:48:13.712Z,2.50
2023-03-06T20:49:13.708Z,2.53
2023-03-06T20:50:13.706Z,2.47
2023-03-06T20:51:13.707Z,2.49
2023-03-06T20:52:13.713Z,2.43
2023-03-06T20:53:13.719Z,2.32
2023-03-06T20:54:13.721Z,2.38
2023-03-06T20:55:13.714Z,2.35
2023-03-06T20:56:13.713Z,2.35
2023-03-06T20:57:13.718Z,2.36
2023-03-06T20:58:13.716Z,2.28
2023-03-06T20:59:13.747Z,2.29
2023-03-06T21:00:13.713Z,2.29
2023-03-06T21:01:13.822Z,2.36
2023-03-06T21:02:13.711Z,2.32
2023-03-06T21:03:13.721Z,2.32
2023-03-06T21:04:13.884Z,2.18
2023-03-06T21:05:13.758Z,2.26
2023-03-06T21:06:13.719Z,2.32
2023-03-06T21:07:14.121Z,2.31
2023-03-06T21:08:13.718Z,2.32
2023-03-06T21:09:13.714Z,2.31
2023-03-06T21:10:13.923Z,2.29
2023-03-06T21:11:13.724Z,2.32
2023-03-06T21:12:13.715Z,2.44
2023-03-06T21:13:13.715Z,2.33
2023-03-06T21:14:13.716Z,2.28
2023-03-06T21:15:13.723Z,2.31
2023-03-06T21:16:13.854Z,2.17
2023-03-06T21:17:13.966Z,2.17
2023-03-06T21:18:13.716Z,2.15
2023-03-06T21:19:13.717Z,2.22
2023-03-06T21:20:13.727Z,2.31
2023-03-06T21:21:13.724Z,2.31
2023-03-06T21:22:13.736Z,2.24
2023-03-06T21:23:13.719Z,2.24
2023-03-06T21:24:13.726Z,2.24
2023-03-06T21:25:13.719Z,2.13
2023-03-06T21:26:13.730Z,2.14
2023-03-06T21:27:13.722Z,2.17
2023-03-06T21:28:13.722Z,2.11
2023-03-06T21:29:13.718Z,2.14
2023-03-06T21:30:13.721Z,2.14
2023-03-06T21:31:13.759Z,2.15
2023-03-06T21:32:13.786Z,2.13
2023-03-06T21:33:13.750Z,2.15
2023-03-06T21:34:13.734Z,2.10
2023-03-06T21:35:13.722Z,2.10
2023-03-06T21:36:13.730Z,2.11
2023-03-06T21:37:13.723Z,2.13
2023-03-06T21:38:13.721Z,2.11
2023-03-06T21:39:13.721Z,2.07
2023-03-06T21:40:14.940Z,2.11
2023-03-06T21:41:13.730Z,2.15
2023-03-06T21:42:13.732Z,2.17
2023-03-06T21:43:13.738Z,2.13
2023-03-06T21:44:13.721Z,1.97
2023-03-06T21:45:13.722Z,1.97
2023-03-06T21:46:13.832Z,2.02
2023-03-06T21:47:13.738Z,2.00
2023-03-06T21:48:13.724Z,2.07
2023-03-06T21:49:13.760Z,2.06
2023-03-06T21:50:13.731Z,2.04
2023-03-06T21:51:13.723Z,2.06
2023-03-06T21:52:13.732Z,2.13
2023-03-06T21:53:13.725Z,2.08
2023-03-06T21:54:16.350Z,2.13
2023-03-06T21:55:13.722Z,2.17
2023-03-06T21:56:13.730Z,2.17
2023-03-06T21:57:13.728Z,2.14
2023-03-06T21:58:13.732Z,2.14
2023-03-06T21:59:13.724Z,2.08
2023-03-06T22:00:13.730Z,2.13
2023-03-06T22:01:13.768Z,2.11
2023-03-06T22:02:13.720Z,2.11
2023-03-06T22:03:13.727Z,2.11
2023-03-06T22:04:13.770Z,2.13
2023-03-06T22:05:13.756Z,2.00
2023-03-06T22:06:13.720Z,2.02
2023-03-06T22:07:13.728Z,1.99
2023-03-06T22:08:13.720Z,2.04
2023-03-06T22:09:13.722Z,1.95
2023-03-06T22:10:13.730Z,1.94
2023-03-06T22:11:13.720Z,1.89
2023-03-06T22:12:13.723Z,1.94
2023-03-06T22:13:13.729Z,1.97
2023-03-06T22:14:13.728Z,2.02
2023-03-06T22:15:13.720Z,1.92
2023-03-06T22:16:13.767Z,1.89
2023-03-06T22:17:13.732Z,1.92
2023-03-06T22:18:13.726Z,1.92
2023-03-06T22:19:13.721Z,1.94
2023-03-06T22:20:13.727Z,1.95
2023-03-06T22:21:13.751Z,1.92
2023-03-06T22:22:13.724Z,1.92
2023-03-06T22:23:13.720Z,1.94
2023-03-06T22:24:13.729Z,1.94
2023-03-06T22:25:13.920Z,1.88
2023-03-06T22:27:13.721Z,1.94
2023-03-06T22:28:13.718Z,1.92
2023-03-06T22:29:13.719Z,1.92
2023-03-06T22:30:13.727Z,1.99
2023-03-06T22:31:13.717Z,1.97
2023-03-06T22:32:13.879Z,1.94
2023-03-06T22:33:13.714Z,2.08
2023-03-06T22:34:13.727Z,1.94
2023-03-06T22:35:13.722Z,2.00
2023-03-06T22:36:13.732Z,1.99
2023-03-06T22:37:13.746Z,1.97
2023-03-06T22:38:14.333Z,2.08
2023-03-06T22:39:13.726Z,2.06
2023-03-06T22:40:13.715Z,2.10
2023-03-06T22:41:13.741Z,2.13
2023-03-06T22:42:13.721Z,2.10
2023-03-06T22:43:13.712Z,2.07
2023-03-06T22:44:13.712Z,2.07
2023-03-06T22:45:13.711Z,2.11
2023-03-06T22:46:13.780Z,2.13
2023-03-06T22:47:13.713Z,2.08
2023-03-06T22:48:13.710Z,2.10
2023-03-06T22:49:13.711Z,2.15
2023-03-06T22:50:13.731Z,2.14
2023-03-06T22:52:15.193Z,2.10
2023-03-06T22:53:13.738Z,2.13
2023-03-06T22:54:13.715Z,2.14
2023-03-06T22:55:13.717Z,2.14
2023-03-06T22:56:13.718Z,2.25
2023-03-06T22:57:14.921Z,2.31
2023-03-06T22:58:13.711Z,2.24
2023-03-06T22:59:13.716Z,2.18
2023-03-06T23:00:13.710Z,2.17
2023-03-06T23:01:13.752Z,2.36
2023-03-06T23:02:13.716Z,2.31
2023-03-06T23:03:13.719Z,2.31
2023-03-06T23:04:13.727Z,2.33
2023-03-06T23:05:13.719Z,2.31
2023-03-06T23:06:13.720Z,2.31
2023-03-06T23:07:13.731Z,2.24
2023-03-06T23:08:13.711Z,2.26
2023-03-06T23:09:13.746Z,2.31
2023-03-06T23:10:13.927Z,2.29
2023-03-06T23:11:13.718Z,2.20
2023-03-06T23:12:13.721Z,2.31
2023-03-06T23:13:13.715Z,2.18
2023-03-06T23:14:13.726Z,2.31
2023-03-06T23:15:13.717Z,2.32
2023-03-06T23:16:13.721Z,2.26
2023-03-06T23:17:13.721Z,2.33
2023-03-06T23:18:13.719Z,2.29
2023-03-06T23:19:13.717Z,2.31
2023-03-06T23:20:13.735Z,2.35
2023-03-06T23:21:13.919Z,2.28
2023-03-06T23:22:15.134Z,2.28
2023-03-06T23:23:13.721Z,2.31
2023-03-06T23:24:13.715Z,2.32
2023-03-06T23:25:13.744Z,2.32
2023-03-06T23:26:13.721Z,2.28
2023-03-06T23:27:13.735Z,2.29
2023-03-06T23:28:13.716Z,2.32
2023-03-06T23:29:13.722Z,2.39
2023-03-06T23:30:13.717Z,2.43
2023-03-06T23:31:13.741Z,2.42
2023-03-06T23:32:13.757Z,2.46
2023-03-06T23:33:13.715Z,2.33
2023-03-06T23:34:13.725Z,2.33
2023-03-06T23:35:13.724Z,2.38
2023-03-06T23:36:13.736Z,2.33
2023-03-06T23:37:13.723Z,2.32
2023-03-06T23:38:13.723Z,2.32
2023-03-06T23:39:13.722Z,2.33
2023-03-06T23:40:13.742Z,2.32
2023-03-06T23:41:13.940Z,2.32
2023-03-06T23:42:13.723Z,2.32
2023-03-06T23:43:13.726Z,2.35
2023-03-06T23:44:13.720Z,2.36
2023-03-06T23:45:13.723Z,2.38
2023-03-06T23:46:13.765Z,2.29
2023-03-06T23:47:13.719Z,2.38
2023-03-06T23:48:13.718Z,2.31
2023-03-06T23:49:13.719Z,2.33
2023-03-06T23:50:13.727Z,2.33
2023-03-06T23:51:13.727Z,2.33
2023-03-06T23:52:13.721Z,2.44
2023-03-06T23:53:13.731Z,2.44
2023-03-06T23:54:13.720Z,2.47
2023-03-06T23:55:13.720Z,2.46
2023-03-06T23:56:13.735Z,2.44
2023-03-06T23:57:13.748Z,2.47
2023-03-06T23:58:13.728Z,2.46
2023-03-06T23:59:13.718Z,2.46
